Time;durP1;ratioP1;P1;durP2;ratioP2;P2;SDS_P1;SDS_P2;PMS_P1;PMS_P2;Temp;Humidity;BMP_temperature;BMP_pressure;BME280_temperature;BME280_humidity;BME280_pressure;Samples;Min_cycle;Max_cycle;Signal;HPM_P1;HPM_P2
2023/04/24 00:01:19;;;;;;;14.27;8.80;;;11.40;99.90;;;;;;5013298;28;20080;-64
2023/04/24 00:03:44;;;;;;;12.45;8.50;;;11.10;99.90;;;;;;5013501;28;20380;-64
2023/04/24 00:06:10;;;;;;;11.43;8.82;;;11.50;99.90;;;;;;5013482;28;20060;-65
2023/04/24 00:08:36;;;;;;;13.63;9.15;;;11.60;99.90;;;;;;5013550;28;20137;-66
2023/04/24 00:11:01;;;;;;;13.68;9.07;;;11.00;99.90;;;;;;5013495;28;20453;-64
2023/04/24 00:13:28;;;;;;;12.85;8.57;;;11.40;99.90;;;;;;5013389;28;20042;-64
2023/04/24 00:15:54;;;;;;;12.98;9.07;;;10.40;99.90;;;;;;5011699;28;20497;-64
2023/04/24 00:18:20;;;;;;;14.57;9.10;;;11.30;99.90;;;;;;5013273;28;20490;-64
2023/04/24 00:20:46;;;;;;;12.73;8.50;;;10.70;99.90;;;;;;5013585;28;20053;-64
2023/04/24 00:23:12;;;;;;;11.95;8.77;;;11.70;99.90;;;;;;5012156;28;20045;-65
2023/04/24 00:25:38;;;;;;;;;;;11.00;99.90;;;;;;5013795;28;20054;-64
2023/04/24 00:28:04;;;;;;;10.80;8.48;;;11.20;99.90;;;;;;5013130;28;20012;-64
2023/04/24 00:30:30;;;;;;;10.45;8.65;;;10.50;99.90;;;;;;5012896;28;20123;-64
2023/04/24 00:32:55;;;;;;;11.93;9.13;;;11.80;99.90;;;;;;5013017;28;20045;-64
2023/04/24 00:35:21;;;;;;;12.77;9.15;;;11.90;99.90;;;;;;5012828;28;20095;-64
2023/04/24 00:37:47;;;;;;;12.40;9.20;;;10.90;99.90;;;;;;5012985;28;20100;-67
2023/04/24 00:40:13;;;;;;;13.70;9.13;;;12.10;99.90;;;;;;5012957;28;20050;-65
2023/04/24 00:42:40;;;;;;;12.73;9.05;;;11.40;99.90;;;;;;5012788;28;20128;-64
2023/04/24 00:45:06;;;;;;;12.57;8.48;;;10.50;99.90;;;;;;5012468;28;20042;-64
2023/04/24 00:47:33;;;;;;;10.57;9.13;;;11.70;99.90;;;;;;5011556;28;20081;-64
2023/04/24 00:50:02;;;;;;;13.63;9.40;;;11.50;99.90;;;;;;5012731;28;20608;-64
2023/04/24 00:52:30;;;;;;;13.63;9.45;;;11.50;99.90;;;;;;5012292;28;20080;-65
2023/04/24 00:54:56;;;;;;;12.23;10.13;;;11.20;99.90;;;;;;5012612;28;20053;-64
2023/04/24 00:57:23;;;;;;;12.57;9.60;;;11.00;99.90;;;;;;5012643;28;20053;-65
2023/04/24 00:59:49;;;;;;;13.18;9.98;;;10.70;99.90;;;;;;5012317;28;20100;-65
2023/04/24 01:02:15;;;;;;;12.02;10.25;;;11.00;99.90;;;;;;5011262;28;20052;-64
2023/04/24 01:04:41;;;;;;;12.57;10.00;;;11.10;99.90;;;;;;5012466;28;20045;-64
2023/04/24 01:07:10;;;;;;;11.65;8.93;;;10.80;99.90;;;;;;5012547;28;20061;-65
2023/04/24 01:09:39;;;;;;;10.90;9.18;;;10.40;99.90;;;;;;5012114;28;20548;-64
2023/04/24 01:12:05;;;;;;;12.15;9.55;;;10.30;99.90;;;;;;5012273;28;20072;-64
2023/04/24 01:14:31;;;;;;;;;;;10.70;99.90;;;;;;5012456;28;20054;-64
2023/04/24 01:16:57;;;;;;;9.38;7.53;;;11.50;99.90;;;;;;5012331;28;19926;-67
2023/04/24 01:19:23;;;;;;;9.13;7.47;;;10.60;99.90;;;;;;5012314;28;20049;-64
2023/04/24 01:21:53;;;;;;;12.90;7.90;;;11.20;99.90;;;;;;5012164;28;20042;-64
2023/04/24 01:24:19;;;;;;;10.88;8.23;;;10.00;99.90;;;;;;5012189;28;20077;-64
2023/04/24 01:26:46;;;;;;;10.57;8.48;;;10.70;99.90;;;;;;5012212;28;20481;-64
2023/04/24 01:29:12;;;;;;;10.73;7.82;;;10.80;99.90;;;;;;5011939;28;20046;-64
2023/04/24 01:31:39;;;;;;;8.65;7.75;;;10.30;99.90;;;;;;5012091;28;20084;-64
2023/04/24 01:34:05;;;;;;;8.60;7.70;;;10.50;99.90;;;;;;5012077;28;20046;-64
2023/04/24 01:36:32;;;;;;;;;;;11.10;99.90;;;;;;5012507;28;20457;-64
2023/04/24 01:38:57;;;;;;;8.83;6.17;;;11.30;99.90;;;;;;5012090;28;20366;-64
2023/04/24 01:41:24;;;;;;;8.13;7.15;;;10.20;99.90;;;;;;5011007;28;20125;-63
2023/04/24 01:43:50;;;;;;;8.57;6.90;;;11.30;99.90;;;;;;5011697;28;20053;-63
2023/04/24 01:46:16;;;;;;;10.43;6.70;;;10.70;99.90;;;;;;5012038;28;20104;-63
2023/04/24 01:48:42;;;;;;;7.40;6.63;;;11.00;99.90;;;;;;5012066;28;20517;-66
2023/04/24 01:51:08;;;;;;;8.48;6.80;;;11.20;99.90;;;;;;5011964;28;20470;-63
2023/04/24 01:53:34;;;;;;;8.85;6.18;;;10.20;99.90;;;;;;5011751;28;20092;-63
2023/04/24 01:56:00;;;;;;;8.30;6.65;;;10.20;99.90;;;;;;5012050;28;20049;-63
2023/04/24 01:58:27;;;;;;;7.78;6.32;;;10.90;99.90;;;;;;5011674;28;20052;-63
2023/04/24 02:00:52;;;;;;;7.68;6.50;;;9.90;99.90;;;;;;5011887;28;20103;-64
2023/04/24 02:03:18;;;;;;;7.40;6.43;;;10.40;99.90;;;;;;5012199;28;20504;-64
2023/04/24 02:05:45;;;;;;;7.10;6.30;;;10.90;99.90;;;;;;5011888;28;20041;-63
2023/04/24 02:08:10;;;;;;;8.38;5.95;;;10.20;99.90;;;;;;5011890;28;20133;-63
2023/04/24 02:10:36;;;;;;;9.30;6.82;;;10.40;99.90;;;;;;5011569;28;20410;-63
2023/04/24 02:13:02;;;;;;;8.93;5.72;;;10.50;99.90;;;;;;5011520;28;20076;-63
2023/04/24 02:15:28;;;;;;;10.55;6.07;;;10.70;99.90;;;;;;5011836;28;20045;-68
2023/04/24 02:17:53;;;;;;;7.05;5.38;;;10.70;99.90;;;;;;5011938;28;20050;-64
2023/04/24 02:20:19;;;;;;;7.13;5.85;;;10.40;99.90;;;;;;5011753;28;20132;-64
2023/04/24 02:22:45;;;;;;;7.57;6.00;;;11.10;99.90;;;;;;5015481;28;20053;-63
2023/04/24 02:25:10;;;;;;;7.53;5.78;;;10.80;99.90;;;;;;5015463;28;20046;-63
2023/04/24 02:27:36;;;;;;;9.75;5.85;;;10.50;99.90;;;;;;5015149;28;20522;-63
2023/04/24 02:30:02;;;;;;;7.72;5.55;;;10.50;99.90;;;;;;5015240;28;20137;-63
2023/04/24 02:32:28;;;;;;;6.10;5.50;;;10.60;99.90;;;;;;5014138;28;20402;-66
2023/04/24 02:34:54;;;;;;;7.45;6.05;;;10.00;99.90;;;;;;5015304;28;20042;-63
2023/04/24 02:37:20;;;;;;;6.63;5.95;;;10.90;99.90;;;;;;5015286;28;20505;-63
2023/04/24 02:39:45;;;;;;;8.00;6.40;;;10.70;99.90;;;;;;5015166;28;20552;-63
2023/04/24 02:42:11;;;;;;;7.57;6.10;;;10.70;99.90;;;;;;5014789;28;20100;-63
2023/04/24 02:44:37;;;;;;;8.05;5.72;;;10.30;99.90;;;;;;5015012;28;20397;-63
2023/04/24 02:47:03;;;;;;;8.07;6.30;;;10.90;99.90;;;;;;5015337;28;20054;-63
2023/04/24 02:49:28;;;;;;;7.38;6.10;;;10.00;99.90;;;;;;5014938;28;20108;-63
2023/04/24 02:51:54;;;;;;;7.40;6.55;;;10.20;99.90;;;;;;5014814;28;20429;-64
2023/04/24 02:54:20;;;;;;;7.35;6.45;;;10.00;99.90;;;;;;5014839;28;20076;-64
2023/04/24 02:56:45;;;;;;;8.95;6.75;;;10.20;99.90;;;;;;5014548;28;20046;-63
2023/04/24 02:59:11;;;;;;;8.80;6.85;;;10.20;99.90;;;;;;5014649;28;20050;-63
2023/04/24 03:01:37;;;;;;;9.80;7.65;;;10.00;99.90;;;;;;5014394;28;20133;-63
2023/04/24 03:04:03;;;;;;;11.15;7.63;;;10.40;99.90;;;;;;5014944;28;20058;-63
2023/04/24 03:06:31;;;;;;;9.95;8.20;;;10.90;99.90;;;;;;5014650;28;20564;-63
2023/04/24 03:08:56;;;;;;;10.38;8.15;;;10.90;99.90;;;;;;5014600;28;20068;-63
2023/04/24 03:11:22;;;;;;;10.35;8.15;;;10.80;99.90;;;;;;5014196;28;20042;-62
2023/04/24 03:13:48;;;;;;;12.93;9.60;;;10.80;99.90;;;;;;5014458;28;20046;-63
2023/04/24 03:16:13;;;;;;;11.10;9.27;;;10.20;99.90;;;;;;5013326;28;20479;-63
2023/04/24 03:18:39;;;;;;;14.18;10.00;;;10.20;99.90;;;;;;5014107;28;20081;-63
2023/04/24 03:21:05;;;;;;;12.93;9.60;;;10.50;99.90;;;;;;5014283;28;20053;-62
2023/04/24 03:23:31;;;;;;;12.13;10.07;;;10.90;99.90;;;;;;5014233;28;20401;-62
2023/04/24 03:25:56;;;;;;;13.68;10.00;;;10.70;99.90;;;;;;5013901;28;20116;-66
2023/04/24 03:28:22;;;;;;;17.63;11.00;;;10.00;99.90;;;;;;5014163;28;20049;-62
2023/04/24 03:30:48;;;;;;;13.32;10.48;;;10.50;99.90;;;;;;5012904;28;20080;-63
2023/04/24 03:33:13;;;;;;;14.48;10.93;;;10.20;99.90;;;;;;5013727;28;20081;-65
2023/04/24 03:35:39;;;;;;;13.30;11.07;;;11.10;99.90;;;;;;5013839;28;20458;-63
2023/04/24 03:38:05;;;;;;;16.85;10.70;;;10.70;99.90;;;;;;5013999;28;20046;-63
2023/04/24 03:40:33;;;;;;;17.60;11.55;;;10.00;99.90;;;;;;5014043;28;20065;-62
2023/04/24 03:42:58;;;;;;;14.52;11.25;;;10.30;99.90;;;;;;5013962;28;20068;-65
2023/04/24 03:45:24;;;;;;;14.40;11.50;;;10.80;99.90;;;;;;5013881;28;20486;-63
2023/04/24 03:47:50;;;;;;;18.48;11.70;;;10.70;99.90;;;;;;5013870;28;20053;-62
2023/04/24 03:50:16;;;;;;;22.40;11.57;;;10.90;99.90;;;;;;5013702;28;20041;-63
2023/04/24 03:52:41;;;;;;;21.38;11.52;;;11.00;99.90;;;;;;5012427;28;20534;-63
2023/04/24 03:55:07;;;;;;;23.08;13.10;;;10.20;99.90;;;;;;5013494;28;20049;-64
2023/04/24 03:57:33;;;;;;;24.48;12.60;;;9.90;99.90;;;;;;5013686;28;20103;-66
2023/04/24 03:59:59;;;;;;;27.48;12.27;;;10.10;99.90;;;;;;5013609;28;20053;-68
2023/04/24 04:02:24;;;;;;;18.70;9.82;;;10.10;99.90;;;;;;5012631;28;20049;-68
2023/04/24 04:04:50;;;;;;;17.65;9.30;;;11.00;99.90;;;;;;5012492;28;20048;-66
2023/04/24 04:07:16;;;;;;;14.25;8.63;;;10.20;99.90;;;;;;5013332;28;20118;-67
2023/04/24 04:09:41;;;;;;;14.35;8.40;;;10.00;99.90;;;;;;5013290;28;20050;-65
2023/04/24 04:12:07;;;;;;;12.65;6.88;;;10.40;99.90;;;;;;5012297;28;20448;-66
2023/04/24 04:14:33;;;;;;;14.40;8.00;;;8.70;99.90;;;;;;5013950;28;20053;-66
2023/04/24 04:16:58;;;;;;;11.50;6.60;;;10.60;99.90;;;;;;5013431;28;20154;-66
2023/04/24 04:19:24;;;;;;;14.57;8.18;;;10.60;99.90;;;;;;5013388;28;20049;-68
2023/04/24 04:21:55;;;;;;;12.93;7.63;;;10.90;99.90;;;;;;5013380;28;20095;-66
2023/04/24 04:24:22;;;;;;;11.05;6.78;;;10.70;99.90;;;;;;5013013;28;20054;-67
2023/04/24 04:26:50;;;;;;;12.55;7.00;;;10.00;99.90;;;;;;5012968;28;20050;-66
2023/04/24 04:29:18;;;;;;;12.70;6.82;;;10.90;99.90;;;;;;5013083;28;20052;-67
2023/04/24 04:31:44;;;;;;;11.15;7.32;;;10.40;99.90;;;;;;5012995;28;20096;-66
2023/04/24 04:34:11;;;;;;;;;;;9.90;99.90;;;;;;5013503;28;20093;-66
2023/04/24 04:36:39;;;;;;;8.43;5.43;;;9.90;99.90;;;;;;5012596;28;19961;-67
2023/04/24 04:39:06;;;;;;;8.90;5.15;;;9.90;99.90;;;;;;5013010;28;20132;-68
2023/04/24 04:41:34;;;;;;;9.38;5.53;;;10.10;99.90;;;;;;5013172;28;20129;-67
2023/04/24 04:44:00;;;;;;;7.43;4.78;;;10.40;99.90;;;;;;5012218;28;20057;-69
2023/04/24 04:46:26;;;;;;;8.50;6.13;;;9.80;99.90;;;;;;5011858;28;20056;-66
2023/04/24 04:48:53;;;;;;;13.30;8.35;;;10.50;99.90;;;;;;5011764;28;20046;-66
2023/04/24 04:51:19;;;;;;;13.80;9.93;;;9.60;99.90;;;;;;5012466;28;20061;-66
2023/04/24 04:53:44;;;;;;;16.02;8.57;;;9.60;99.90;;;;;;5012585;28;20394;-68
2023/04/24 04:56:10;;;;;;;8.45;4.80;;;10.40;99.90;;;;;;5012944;28;20065;-70
2023/04/24 04:58:36;;;;;;;7.05;4.72;;;10.50;99.90;;;;;;5012666;28;20050;-69
2023/04/24 05:01:02;;;;;;;11.23;5.45;;;10.60;99.90;;;;;;5011635;28;20481;-72
2023/04/24 05:03:28;;;;;;;6.85;4.22;;;9.90;99.90;;;;;;5012592;28;20196;-68
2023/04/24 05:05:53;;;;;;;8.05;4.78;;;9.70;99.90;;;;;;5012298;28;20133;-67
2023/04/24 05:08:19;;;;;;;13.15;6.47;;;9.60;99.90;;;;;;5012440;28;20096;-69
2023/04/24 05:10:45;;;;;;;9.30;6.60;;;10.50;99.90;;;;;;5012534;28;20057;-79
2023/04/24 05:13:11;;;;;;;12.40;7.35;;;10.40;99.90;;;;;;4994950;28;20609;-69
2023/04/24 05:15:36;;;;;;;12.75;6.78;;;9.80;99.90;;;;;;5012491;28;20041;-68
2023/04/24 05:18:02;;;;;;;9.70;6.15;;;9.90;99.90;;;;;;5011113;28;20041;-69
2023/04/24 05:20:28;;;;;;;9.32;6.15;;;9.40;99.90;;;;;;5012135;28;20046;-70
2023/04/24 05:22:54;;;;;;;11.55;5.20;;;10.50;99.90;;;;;;5012375;28;20108;-69
2023/04/24 05:25:19;;;;;;;8.15;4.30;;;9.80;99.90;;;;;;5012268;28;20522;-69
2023/04/24 05:27:46;;;;;;;7.60;4.20;;;9.60;99.90;;;;;;5012197;28;20482;-72
2023/04/24 05:30:12;;;;;;;;;;;9.30;99.90;;;;;;5012711;28;20085;-73
2023/04/24 05:32:37;;;;;;;8.68;3.83;;;9.80;99.90;;;;;;5010970;28;20378;-72
2023/04/24 05:35:03;;;;;;;11.85;4.25;;;9.60;99.90;;;;;;5010601;28;20060;-69
2023/04/24 05:37:29;;;;;;;8.10;5.07;;;9.40;99.90;;;;;;5012279;28;20056;-71
2023/04/24 05:39:55;;;;;;;12.10;6.15;;;9.20;99.90;;;;;;5010863;28;20046;-79
2023/04/24 05:42:20;;;;;;;14.18;6.03;;;10.00;99.90;;;;;;5011059;28;20061;-72
2023/04/24 05:44:46;;;;;;;10.02;5.82;;;9.80;99.90;;;;;;5012124;28;20045;-74
2023/04/24 05:47:12;;;;;;;10.68;5.65;;;9.70;99.90;;;;;;5011065;28;20057;-69
2023/04/24 05:49:37;;;;;;;8.98;4.90;;;10.00;99.90;;;;;;5011765;28;20048;-70
2023/04/24 05:52:05;;;;;;;6.93;5.72;;;9.30;99.90;;;;;;4994235;28;20068;-69
2023/04/24 05:54:31;;;;;;;14.85;6.32;;;9.70;99.90;;;;;;5012339;28;20418;-73
2023/04/24 05:56:56;;;;;;;14.63;5.65;;;9.40;99.90;;;;;;5014673;28;20042;-69
2023/04/24 05:59:22;;;;;;;8.55;6.15;;;9.10;99.90;;;;;;5015886;28;20041;-68
2023/04/24 06:01:48;;;;;;;8.32;5.45;;;10.00;99.90;;;;;;5015869;28;20518;-67
2023/04/24 06:04:14;;;;;;;10.70;5.57;;;9.30;99.90;;;;;;5015843;28;20042;-71
2023/04/24 06:06:40;;;;;;;;;;;10.30;99.90;;;;;;5016266;28;20124;-67
2023/04/24 06:09:06;;;;;;;8.63;5.07;;;9.90;99.90;;;;;;5020553;28;20055;-73
2023/04/24 06:11:32;;;;;;;9.00;4.97;;;9.40;99.90;;;;;;5025534;28;20045;-65
2023/04/24 06:13:58;;;;;;;14.60;4.65;;;9.60;99.90;;;;;;5005790;28;20042;-67
2023/04/24 06:16:23;;;;;;;6.38;3.72;;;9.50;99.90;;;;;;5014364;28;20091;-65
2023/04/24 06:18:50;;;;;;;6.38;3.50;;;9.70;99.90;;;;;;5014121;28;20061;-67
2023/04/24 06:21:16;;;;;;;3.92;2.97;;;10.00;99.90;;;;;;5012676;28;20080;-67
2023/04/24 06:23:42;;;;;;;6.40;2.80;;;9.50;99.90;;;;;;5006740;28;20050;-68
2023/04/24 06:26:07;;;;;;;7.60;3.22;;;9.60;99.90;;;;;;5008628;28;20038;-65
2023/04/24 06:28:33;;;;;;;6.75;2.78;;;9.70;99.90;;;;;;5013331;28;20061;-65
2023/04/24 06:30:59;;;;;;;7.53;3.65;;;10.30;99.90;;;;;;5016532;28;20442;-66
2023/04/24 06:33:24;;;;;;;7.63;3.25;;;10.30;99.90;;;;;;5007823;28;20049;-66
2023/04/24 06:35:50;;;;;;;5.35;3.20;;;10.30;99.90;;;;;;5010953;28;20061;-66
2023/04/24 06:38:16;;;;;;;4.72;3.28;;;9.80;99.90;;;;;;5013130;28;20474;-70
2023/04/24 06:40:41;;;;;;;10.27;3.17;;;10.40;99.90;;;;;;5012704;28;20050;-78
2023/04/24 06:43:07;;;;;;;6.32;2.50;;;10.40;99.90;;;;;;5021445;28;20057;-68
2023/04/24 06:45:33;;;;;;;6.45;2.20;;;9.80;99.90;;;;;;5013262;28;20049;-72
2023/04/24 06:47:59;;;;;;;11.02;3.17;;;10.30;99.90;;;;;;5007597;28;20057;-67
2023/04/24 06:50:25;;;;;;;5.45;2.90;;;9.80;99.90;;;;;;5013555;28;20041;-70
2023/04/24 06:52:50;;;;;;;5.00;3.47;;;10.30;99.90;;;;;;5013133;28;20137;-66
2023/04/24 06:55:16;;;;;;;10.88;3.88;;;9.30;99.90;;;;;;5014597;28;20057;-69
2023/04/24 07:02:47;;;;;;;8.73;2.83;;;9.50;99.90;;;;;;5141999;27;1440224;-67
2023/04/24 07:05:15;;;;;;;8.75;2.63;;;9.80;99.90;;;;;;5165912;27;20078;-69
2023/04/24 07:07:41;;;;;;;3.10;2.22;;;9.70;99.90;;;;;;5131101;27;20051;-69
2023/04/24 07:10:08;;;;;;;7.22;2.47;;;9.60;99.90;;;;;;5150530;27;20038;-70
2023/04/24 07:12:34;;;;;;;9.93;2.63;;;10.00;99.90;;;;;;5151502;27;20039;-66
2023/04/24 07:15:00;;;;;;;7.95;3.63;;;9.40;99.90;;;;;;5150174;27;20043;-66
2023/04/24 07:17:26;;;;;;;8.68;4.13;;;9.90;99.90;;;;;;5149939;27;20078;-67
2023/04/24 07:19:51;;;;;;;10.52;5.03;;;9.30;99.90;;;;;;5150161;27;20157;-73
2023/04/24 07:22:17;;;;;;;21.13;6.07;;;9.60;99.90;;;;;;5150101;27;20073;-67
2023/04/24 07:24:46;;;;;;;15.65;7.43;;;9.80;99.90;;;;;;5150429;27;20045;-65
2023/04/24 07:27:12;;;;;;;16.98;9.63;;;9.70;99.90;;;;;;5149825;27;20043;-76
2023/04/24 07:29:38;;;;;;;18.15;10.50;;;9.80;99.90;;;;;;5131282;27;20130;-66
2023/04/24 07:32:03;;;;;;;22.17;10.70;;;10.10;99.90;;;;;;5149981;27;20120;-70
2023/04/24 07:34:29;;;;;;;24.30;13.35;;;9.50;99.90;;;;;;5149899;27;20459;-70
2023/04/24 07:36:55;;;;;;;26.75;14.27;;;10.00;99.90;;;;;;5148777;27;20046;-69
2023/04/24 07:39:21;;;;;;;37.30;15.65;;;10.00;99.90;;;;;;5131268;27;20089;-68
2023/04/24 07:41:46;;;;;;;35.40;16.15;;;9.70;99.90;;;;;;5128753;27;20207;-68
2023/04/24 07:44:12;;;;;;;31.58;15.75;;;9.60;99.90;;;;;;5130675;27;20046;-67
2023/04/24 07:46:38;;;;;;;25.02;15.57;;;9.50;99.90;;;;;;5149445;27;20047;-68
2023/04/24 07:49:04;;;;;;;35.63;17.70;;;9.50;99.90;;;;;;5130466;27;20065;-74
2023/04/24 07:51:30;;;;;;;;;;;9.50;99.90;;;;;;5148470;27;20041;-69
2023/04/24 07:53:56;;;;;;;28.73;14.50;;;9.70;99.90;;;;;;5127486;27;19930;-67
2023/04/24 07:56:22;;;;;;;27.05;15.30;;;10.00;99.90;;;;;;5145309;27;20277;-70
2023/04/24 07:58:47;;;;;;;38.95;15.57;;;10.30;99.90;;;;;;5144883;27;20039;-66
2023/04/24 08:01:13;;;;;;;32.38;15.20;;;9.20;99.90;;;;;;5149179;27;20047;-68
2023/04/24 08:03:39;;;;;;;29.95;14.60;;;9.60;99.90;;;;;;5149423;27;20486;-67
2023/04/24 08:06:05;;;;;;;27.85;14.00;;;9.60;99.90;;;;;;5149838;27;20054;-69
2023/04/24 08:08:31;;;;;;;22.85;14.18;;;9.40;99.90;;;;;;5137910;27;20126;-67
2023/04/24 08:10:56;;;;;;;24.48;14.02;;;9.80;99.90;;;;;;5147672;27;20045;-66
2023/04/24 08:13:22;;;;;;;25.27;10.93;;;9.60;99.90;;;;;;5138397;27;20637;-73
2023/04/24 08:15:48;;;;;;;22.63;12.45;;;9.90;99.90;;;;;;5114817;27;20589;-70
2023/04/24 08:18:15;;;;;;;23.42;12.32;;;9.40;99.90;;;;;;5133909;27;20039;-72
2023/04/24 08:20:41;;;;;;;29.48;14.57;;;9.70;99.90;;;;;;5133535;27;20096;-67
2023/04/24 08:23:07;;;;;;;22.20;11.63;;;9.40;99.90;;;;;;5133767;27;20581;-69
2023/04/24 08:25:34;;;;;;;21.50;12.18;;;9.50;99.90;;;;;;5135211;27;20126;-68
2023/04/24 08:28:02;;;;;;;30.67;11.82;;;9.80;99.90;;;;;;5135032;27;20055;-69
2023/04/24 08:30:28;;;;;;;16.88;10.35;;;9.30;99.90;;;;;;5134681;27;20392;-67
2023/04/24 08:32:54;;;;;;;21.23;12.70;;;9.60;99.90;;;;;;5135418;27;20178;-73
2023/04/24 08:35:19;;;;;;;23.50;11.52;;;9.30;99.90;;;;;;5096093;27;20043;-69
2023/04/24 08:37:45;;;;;;;20.48;12.68;;;9.80;99.90;;;;;;5133078;27;20708;-75
2023/04/24 08:40:15;;;;;;;21.38;12.60;;;9.60;99.90;;;;;;5132772;27;20095;-68
2023/04/24 08:42:44;;;;;;;20.88;12.68;;;9.40;99.90;;;;;;5098242;27;20039;-70
2023/04/24 08:45:12;;;;;;;21.48;10.07;;;9.30;99.90;;;;;;5115160;27;20083;-73
2023/04/24 08:47:41;;;;;;;24.33;10.75;;;9.40;99.90;;;;;;5134570;27;20062;-71
2023/04/24 08:50:09;;;;;;;14.20;7.53;;;9.90;99.90;;;;;;5134607;27;20047;-70
2023/04/24 08:52:35;;;;;;;15.50;7.70;;;9.70;99.90;;;;;;5134634;27;20391;-73
2023/04/24 08:55:02;;;;;;;13.02;7.80;;;9.60;99.90;;;;;;5116251;27;20046;-73
2023/04/24 08:57:28;;;;;;;12.70;6.95;;;9.70;99.90;;;;;;5134444;27;20047;-71
2023/04/24 08:59:54;;;;;;;;;;;10.00;99.90;;;;;;5134735;27;20042;-67
2023/04/24 09:02:21;;;;;;;11.73;6.60;;;9.90;99.90;;;;;;5134014;27;19926;-68
2023/04/24 09:04:48;;;;;;;13.65;6.95;;;10.40;99.90;;;;;;5134222;27;20131;-71
2023/04/24 09:07:16;;;;;;;12.60;7.03;;;10.00;99.90;;;;;;5133943;27;20457;-69
2023/04/24 09:09:42;;;;;;;14.60;6.65;;;9.80;99.90;;;;;;5134822;27;20405;-67
2023/04/24 09:12:09;;;;;;;17.75;6.88;;;10.00;99.90;;;;;;5134853;27;20138;-74
2023/04/24 09:14:39;;;;;;;14.40;7.93;;;10.00;99.90;;;;;;5134530;27;20043;-68
2023/04/24 09:17:06;;;;;;;18.90;7.13;;;10.00;99.90;;;;;;5116045;27;20051;-69
2023/04/24 09:19:32;;;;;;;14.13;5.70;;;9.60;99.90;;;;;;5116465;27;20502;-66
2023/04/24 09:21:57;;;;;;;15.32;6.25;;;9.80;99.90;;;;;;5134416;27;20085;-68
2023/04/24 09:24:23;;;;;;;15.45;6.03;;;9.80;99.90;;;;;;5133259;27;20129;-70
2023/04/24 09:27:01;;;;;;;16.15;5.30;;;9.70;99.90;;;;;;5133849;27;20051;-70
2023/04/24 09:29:27;;;;;;;13.98;5.10;;;10.00;99.90;;;;;;5134010;27;20043;-67
2023/04/24 09:31:53;;;;;;;11.45;4.70;;;10.00;99.90;;;;;;5133848;27;20100;-68
2023/04/24 09:34:23;;;;;;;10.52;4.85;;;10.00;99.90;;;;;;5133930;27;20054;-71
2023/04/24 09:36:50;;;;;;;15.18;4.63;;;10.20;99.90;;;;;;5133849;27;20058;-68
2023/04/24 09:39:16;;;;;;;14.50;4.70;;;10.40;99.90;;;;;;5133517;27;20097;-68
2023/04/24 09:41:53;;;;;;;13.98;4.47;;;10.60;99.90;;;;;;5124985;27;20131;-78
2023/04/24 09:44:24;;;;;;;12.93;4.95;;;10.50;99.90;;;;;;5117632;27;20046;-69
2023/04/24 09:46:55;;;;;;;15.05;4.40;;;11.00;99.90;;;;;;5115549;27;20406;-65
2023/04/24 09:49:28;;;;;;;10.27;4.13;;;11.00;99.90;;;;;;5133860;27;20082;-67
2023/04/24 09:52:04;;;;;;;8.10;4.05;;;10.70;99.90;;;;;;5133986;27;20066;-69
2023/04/24 09:54:29;;;;;;;10.05;4.40;;;10.50;99.90;;;;;;5133714;27;20035;-66
2023/04/24 09:56:55;;;;;;;7.13;3.35;;;10.80;99.90;;;;;;5133003;27;20413;-67
2023/04/24 09:59:22;;;;;;;7.22;3.20;;;10.50;99.90;;;;;;5133500;27;20092;-65
2023/04/24 10:01:49;;;;;;;9.02;3.78;;;10.70;99.90;;;;;;5133205;27;20426;-64
2023/04/24 10:04:26;;;;;;;7.53;2.80;;;10.60;99.90;;;;;;5115170;27;20047;-65
2023/04/24 10:06:54;;;;;;;13.57;4.03;;;12.00;99.90;;;;;;5133616;27;20047;-63
2023/04/24 10:09:24;;;;;;;14.07;3.45;;;10.50;99.90;;;;;;5133031;27;20121;-63
2023/04/24 10:11:51;;;;;;;12.80;3.00;;;10.80;99.90;;;;;;5132473;27;20051;-64
2023/04/24 10:14:21;;;;;;;8.80;3.28;;;10.70;99.90;;;;;;5133114;27;20039;-64
2023/04/24 10:16:48;;;;;;;14.55;3.35;;;11.10;99.90;;;;;;5124682;27;20399;-65
2023/04/24 10:19:15;;;;;;;7.15;2.78;;;11.20;99.90;;;;;;5114557;27;20047;-66
2023/04/24 10:21:46;;;;;;;9.35;3.30;;;11.20;99.90;;;;;;5133164;27;20047;-68
2023/04/24 10:24:16;;;;;;;8.65;2.83;;;11.10;99.90;;;;;;5133272;27;20142;-69
2023/04/24 10:26:43;;;;;;;7.60;3.22;;;10.90;99.90;;;;;;5114658;27;20062;-69
2023/04/24 10:29:12;;;;;;;8.88;3.05;;;11.20;99.90;;;;;;5133064;27;20129;-69
2023/04/24 10:31:38;;;;;;;9.13;3.10;;;11.10;99.90;;;;;;5133132;27;20066;-66
2023/04/24 10:34:09;;;;;;;11.20;3.30;;;10.70;99.90;;;;;;5133121;27;20130;-64
2023/04/24 10:36:38;;;;;;;12.35;3.22;;;11.10;99.90;;;;;;5112058;28;20048;-67
2023/04/24 10:39:08;;;;;;;9.07;3.30;;;11.20;99.90;;;;;;5112179;28;20398;-69
2023/04/24 10:41:37;;;;;;;18.08;3.20;;;10.70;99.90;;;;;;5114282;27;20054;-70
2023/04/24 10:44:13;;;;;;;12.20;3.70;;;10.60;99.90;;;;;;5132894;27;20057;-69
2023/04/24 10:46:44;;;;;;;11.82;3.55;;;11.00;99.90;;;;;;5132652;27;20053;-68
2023/04/24 10:49:09;;;;;;;11.45;3.20;;;10.90;99.90;;;;;;5132872;27;20055;-66
2023/04/24 10:51:53;;;;;;;10.85;3.10;;;11.30;99.90;;;;;;5113793;27;20039;-64
2023/04/24 10:54:24;;;;;;;8.50;2.92;;;11.00;99.90;;;;;;5132750;27;20043;-68
2023/04/24 10:56:51;;;;;;;9.07;2.72;;;11.10;99.90;;;;;;5133049;27;20047;-65
2023/04/24 10:59:34;;;;;;;22.05;3.38;;;10.90;99.90;;;;;;5133069;27;20043;-67
2023/04/24 11:02:00;;;;;;;10.02;2.40;;;10.80;99.90;;;;;;5132298;28;20099;-67
2023/04/24 11:04:31;;;;;;;8.40;2.40;;;11.10;99.90;;;;;;5114914;28;20051;-65
2023/04/24 11:06:57;;;;;;;8.95;2.70;;;11.00;99.90;;;;;;5133055;28;20131;-66
2023/04/24 11:09:27;;;;;;;10.18;2.50;;;10.90;99.90;;;;;;5132778;28;20046;-66
2023/04/24 11:12:10;;;;;;;12.00;2.67;;;11.20;99.90;;;;;;5133112;28;20100;-66
2023/04/24 11:14:59;;;;;;;15.98;2.70;;;11.00;99.90;;;;;;5132969;28;20087;-66
2023/04/24 11:17:33;;;;;;;9.00;2.28;;;10.60;99.90;;;;;;5132896;28;20114;-69
2023/04/24 11:20:09;;;;;;;12.88;2.40;;;10.60;99.90;;;;;;5132877;28;20399;-65
2023/04/24 11:22:36;;;;;;;5.53;2.10;;;10.50;99.90;;;;;;5132445;28;20538;-67
2023/04/24 11:25:04;;;;;;;12.23;2.20;;;10.20;99.90;;;;;;5132511;28;20039;-66
2023/04/24 11:27:48;;;;;;;10.00;2.30;;;10.50;99.90;;;;;;5132821;28;20070;-70
2023/04/24 11:30:18;;;;;;;11.90;2.67;;;10.30;99.90;;;;;;5132796;28;20045;-64
2023/04/24 11:32:49;;;;;;;9.80;2.30;;;10.30;99.90;;;;;;5132709;28;20039;-65
2023/04/24 11:35:21;;;;;;;7.82;2.10;;;10.40;99.90;;;;;;5112983;28;20063;-70
2023/04/24 11:37:51;;;;;;;9.25;2.20;;;10.20;99.90;;;;;;5109912;28;20052;-66
2023/04/24 11:40:25;;;;;;;5.55;1.92;;;10.00;99.90;;;;;;5110109;28;20043;-69
2023/04/24 11:42:52;;;;;;;7.57;2.13;;;10.30;99.90;;;;;;5111972;28;20047;-65
2023/04/24 11:45:23;;;;;;;7.05;1.63;;;10.20;99.90;;;;;;5111914;28;20058;-66
2023/04/24 11:47:49;;;;;;;9.77;1.85;;;10.30;99.90;;;;;;5107587;28;20052;-64
2023/04/24 11:50:18;;;;;;;7.93;1.90;;;10.10;99.90;;;;;;5133458;27;20054;-65
2023/04/24 11:52:45;;;;;;;4.22;1.30;;;10.10;99.90;;;;;;5135736;27;20107;-64
2023/04/24 11:55:14;;;;;;;5.75;1.70;;;9.70;99.90;;;;;;5136203;27;20054;-66
2023/04/24 11:57:44;;;;;;;10.00;1.65;;;10.10;99.90;;;;;;5135760;27;20398;-68
2023/04/24 12:00:20;;;;;;;4.45;1.63;;;10.00;99.90;;;;;;5136330;27;20155;-69
2023/04/24 12:02:46;;;;;;;7.33;2.40;;;10.10;99.90;;;;;;5135181;27;20063;-64
2023/04/24 12:05:25;;;;;;;7.70;1.83;;;10.40;99.90;;;;;;5135811;27;20054;-64
2023/04/24 12:07:52;;;;;;;4.90;1.98;;;10.20;99.90;;;;;;5135723;27;20046;-65
2023/04/24 12:10:25;;;;;;;6.63;1.80;;;10.30;99.90;;;;;;5135643;27;20050;-67
2023/04/24 12:12:52;;;;;;;13.50;2.33;;;10.30;99.90;;;;;;5135710;27;20103;-66
2023/04/24 12:15:19;;;;;;;8.25;1.60;;;10.20;99.90;;;;;;5135628;27;20054;-63
2023/04/24 12:17:45;;;;;;;10.68;2.22;;;10.10;99.90;;;;;;5135303;27;20070;-68
2023/04/24 12:20:11;;;;;;;;;;;10.00;99.90;;;;;;5135858;27;20487;-65
2023/04/24 12:22:46;;;;;;;10.27;2.50;;;10.20;99.90;;;;;;5135227;27;19930;-63
2023/04/24 12:25:13;;;;;;;7.10;1.75;;;9.60;99.90;;;;;;5135466;27;20043;-63
2023/04/24 12:27:39;;;;;;;6.35;1.63;;;10.00;99.90;;;;;;5135553;27;20055;-62
2023/04/24 12:30:09;;;;;;;9.07;1.60;;;10.10;99.90;;;;;;5135365;27;20051;-62
2023/04/24 12:32:35;;;;;;;7.10;1.70;;;10.30;99.90;;;;;;5135069;27;20498;-63
2023/04/24 12:35:00;;;;;;;6.35;1.63;;;10.10;99.90;;;;;;5135180;27;20102;-66
2023/04/24 12:37:33;;;;;;;5.97;1.50;;;10.00;99.90;;;;;;5135092;27;20047;-64
2023/04/24 12:40:11;;;;;;;10.07;1.65;;;9.90;99.90;;;;;;5135240;27;20044;-63
2023/04/24 12:42:47;;;;;;;6.78;1.60;;;10.10;99.90;;;;;;5135118;27;20066;-65
2023/04/24 12:45:14;;;;;;;6.03;1.65;;;10.20;99.90;;;;;;5134847;27;20613;-64
2023/04/24 12:47:41;;;;;;;8.93;1.80;;;10.10;99.90;;;;;;5134783;27;20067;-67
2023/04/24 12:50:12;;;;;;;5.75;1.77;;;11.50;99.90;;;;;;5134596;27;20491;-63